Main page
METAR-TAF:

METAR-TAF

Airports :

Mauritius, Plaisance, Mauritius

Sir Seewoosagur Ramgoolam International Airport

latitude: 20-26S, longitude: 057-40E, elevation: 55 m

Current weather observation

The report was made 14 minutes ago, at 02:00 UTC
Wind 13 kt from the Southeast
Temperature 22°C
Humidity 65%
Pressure 1021 hPa
Visibility 10 km or more
Scattered clouds at a height of 1700 ft

METAR: FIMP 290200Z 13013KT 9999 SCT017 22/15 Q1021

Time: 06:14 (02:14 UTC)

Forecast

The report was made 2 hours and 29 minutes ago, at 23:45 UTC
Forecast valid from 29 at 00 UTC to 30 at 06 UTC
Wind 15 kt from the Southeast with gusts up to 30 kt
Visibility 10 km or more
Broken clouds at a height of 1500 ft
Probability 30% :
Temporary
from 29 at 18 UTC to 30 at 04 UTC
Visibility: 8000 m
Few clouds at a height of 1000 ft
Broken clouds at a height of 1500 ft
Broken clouds at a height of 5000 ft
light rain showers

TAF: FIMP 282345Z 2900/3006 13015G30KT 9999 BKN015 PROB30 TEMPO 2918/3004 8000 -SHRA FEW010 BKN015 BKN050

Weather observations and forecasts of more than 4000 airports (METAR and TAF reports).

The available stations are represented by yellow and red dots on the map.

Hover mouse over dot to see the name of the station.

Then click to see weather observations and forecasts.

To change the map : click on the green buttons with a black cross to zoom in, on the green button with a dash to zoom out, or on the green arrows for adjacent maps.


METAR-TAF: